sensor_id;sensor_type;location;lat;lon;timestamp;P1;durP1;ratioP1;P2;durP2;ratioP2
15643;SDS011;7921;43.586;1.408;2023-11-21T00:00:52;3.73;;;2.00;;
15643;SDS011;7921;43.586;1.408;2023-11-21T00:03:17;5.30;;;1.97;;
15643;SDS011;7921;43.586;1.408;2023-11-21T00:05:44;7.77;;;1.77;;
15643;SDS011;7921;43.586;1.408;2023-11-21T00:08:09;3.00;;;1.60;;
15643;SDS011;7921;43.586;1.408;2023-11-21T00:10:35;5.17;;;1.63;;
15643;SDS011;7921;43.586;1.408;2023-11-21T00:13:03;2.87;;;1.70;;
15643;SDS011;7921;43.586;1.408;2023-11-21T00:15:28;5.33;;;2.10;;
15643;SDS011;7921;43.586;1.408;2023-11-21T00:17:53;5.70;;;2.17;;
15643;SDS011;7921;43.586;1.408;2023-11-21T00:20:19;4.93;;;1.90;;
15643;SDS011;7921;43.586;1.408;2023-11-21T00:22:48;2.90;;;1.50;;
15643;SDS011;7921;43.586;1.408;2023-11-21T00:25:13;3.97;;;1.50;;
15643;SDS011;7921;43.586;1.408;2023-11-21T00:27:40;3.63;;;1.93;;
15643;SDS011;7921;43.586;1.408;2023-11-21T00:30:06;5.70;;;2.30;;
15643;SDS011;7921;43.586;1.408;2023-11-21T00:32:32;5.00;;;1.70;;
15643;SDS011;7921;43.586;1.408;2023-11-21T00:34:57;3.93;;;1.63;;
15643;SDS011;7921;43.586;1.408;2023-11-21T00:37:24;7.60;;;2.17;;
15643;SDS011;7921;43.586;1.408;2023-11-21T00:39:50;5.23;;;1.80;;
15643;SDS011;7921;43.586;1.408;2023-11-21T00:42:15;3.33;;;1.70;;
15643;SDS011;7921;43.586;1.408;2023-11-21T00:44:40;2.40;;;1.30;;
15643;SDS011;7921;43.586;1.408;2023-11-21T00:47:06;2.87;;;1.40;;
15643;SDS011;7921;43.586;1.408;2023-11-21T00:49:31;4.10;;;1.40;;
15643;SDS011;7921;43.586;1.408;2023-11-21T00:51:57;4.33;;;1.53;;
15643;SDS011;7921;43.586;1.408;2023-11-21T00:54:23;3.20;;;1.77;;
15643;SDS011;7921;43.586;1.408;2023-11-21T00:56:48;6.10;;;1.90;;
15643;SDS011;7921;43.586;1.408;2023-11-21T00:59:14;3.20;;;1.30;;
15643;SDS011;7921;43.586;1.408;2023-11-21T01:01:39;4.50;;;1.47;;
15643;SDS011;7921;43.586;1.408;2023-11-21T01:04:05;5.93;;;1.90;;
15643;SDS011;7921;43.586;1.408;2023-11-21T01:06:31;5.27;;;1.60;;
15643;SDS011;7921;43.586;1.408;2023-11-21T01:08:57;2.53;;;1.70;;
15643;SDS011;7921;43.586;1.408;2023-11-21T01:11:23;3.73;;;1.17;;
15643;SDS011;7921;43.586;1.408;2023-11-21T01:13:48;3.57;;;1.30;;
15643;SDS011;7921;43.586;1.408;2023-11-21T01:16:13;3.80;;;1.37;;
15643;SDS011;7921;43.586;1.408;2023-11-21T01:18:39;4.57;;;1.50;;
15643;SDS011;7921;43.586;1.408;2023-11-21T01:21:04;1.73;;;0.80;;
15643;SDS011;7921;43.586;1.408;2023-11-21T01:23:30;4.87;;;1.50;;
15643;SDS011;7921;43.586;1.408;2023-11-21T01:25:55;4.57;;;1.47;;
15643;SDS011;7921;43.586;1.408;2023-11-21T01:28:21;2.83;;;1.20;;
15643;SDS011;7921;43.586;1.408;2023-11-21T01:30:46;3.33;;;1.30;;
15643;SDS011;7921;43.586;1.408;2023-11-21T01:33:12;3.07;;;1.33;;
15643;SDS011;7921;43.586;1.408;2023-11-21T01:35:38;2.97;;;1.00;;
15643;SDS011;7921;43.586;1.408;2023-11-21T01:38:03;2.63;;;1.13;;
15643;SDS011;7921;43.586;1.408;2023-11-21T01:40:29;2.17;;;0.97;;
15643;SDS011;7921;43.586;1.408;2023-11-21T01:42:55;2.53;;;1.23;;
15643;SDS011;7921;43.586;1.408;2023-11-21T01:45:21;4.60;;;1.40;;
15643;SDS011;7921;43.586;1.408;2023-11-21T01:47:46;4.13;;;1.10;;
15643;SDS011;7921;43.586;1.408;2023-11-21T01:50:15;3.17;;;0.87;;
15643;SDS011;7921;43.586;1.408;2023-11-21T01:52:42;3.13;;;1.00;;
15643;SDS011;7921;43.586;1.408;2023-11-21T01:55:09;5.83;;;0.90;;
15643;SDS011;7921;43.586;1.408;2023-11-21T01:57:35;3.87;;;1.87;;
15643;SDS011;7921;43.586;1.408;2023-11-21T02:00:02;2.90;;;1.20;;
15643;SDS011;7921;43.586;1.408;2023-11-21T02:02:40;2.97;;;1.20;;
15643;SDS011;7921;43.586;1.408;2023-11-21T02:05:10;2.50;;;1.00;;
15643;SDS011;7921;43.586;1.408;2023-11-21T02:07:37;3.43;;;1.20;;
15643;SDS011;7921;43.586;1.408;2023-11-21T02:10:03;4.30;;;1.13;;
15643;SDS011;7921;43.586;1.408;2023-11-21T02:12:29;3.60;;;1.40;;
15643;SDS011;7921;43.586;1.408;2023-11-21T02:14:55;3.07;;;0.97;;
15643;SDS011;7921;43.586;1.408;2023-11-21T02:17:20;3.27;;;1.13;;
15643;SDS011;7921;43.586;1.408;2023-11-21T02:19:46;2.53;;;1.07;;
15643;SDS011;7921;43.586;1.408;2023-11-21T02:22:12;4.03;;;1.50;;
15643;SDS011;7921;43.586;1.408;2023-11-21T02:24:39;2.13;;;1.10;;
15643;SDS011;7921;43.586;1.408;2023-11-21T02:27:07;3.30;;;0.80;;
15643;SDS011;7921;43.586;1.408;2023-11-21T02:29:32;2.50;;;1.13;;
15643;SDS011;7921;43.586;1.408;2023-11-21T02:31:58;3.83;;;1.43;;
15643;SDS011;7921;43.586;1.408;2023-11-21T02:34:24;2.90;;;0.83;;
15643;SDS011;7921;43.586;1.408;2023-11-21T02:36:50;2.20;;;1.13;;
15643;SDS011;7921;43.586;1.408;2023-11-21T02:39:16;3.37;;;1.27;;
15643;SDS011;7921;43.586;1.408;2023-11-21T02:41:42;2.73;;;0.70;;
15643;SDS011;7921;43.586;1.408;2023-11-21T02:44:08;3.20;;;1.30;;
15643;SDS011;7921;43.586;1.408;2023-11-21T02:46:35;2.40;;;0.93;;
15643;SDS011;7921;43.586;1.408;2023-11-21T02:49:01;2.57;;;1.30;;
15643;SDS011;7921;43.586;1.408;2023-11-21T02:51:28;2.40;;;0.97;;
15643;SDS011;7921;43.586;1.408;2023-11-21T02:53:53;2.47;;;1.00;;
15643;SDS011;7921;43.586;1.408;2023-11-21T02:56:19;1.97;;;1.10;;
15643;SDS011;7921;43.586;1.408;2023-11-21T02:58:45;2.43;;;0.80;;
15643;SDS011;7921;43.586;1.408;2023-11-21T03:01:10;1.60;;;0.80;;
15643;SDS011;7921;43.586;1.408;2023-11-21T03:03:38;3.10;;;1.30;;
15643;SDS011;7921;43.586;1.408;2023-11-21T03:06:05;2.20;;;1.00;;
15643;SDS011;7921;43.586;1.408;2023-11-21T03:08:31;2.60;;;0.83;;
15643;SDS011;7921;43.586;1.408;2023-11-21T03:10:57;2.07;;;0.80;;
15643;SDS011;7921;43.586;1.408;2023-11-21T03:13:23;3.27;;;1.00;;
15643;SDS011;7921;43.586;1.408;2023-11-21T03:15:48;2.37;;;1.00;;
15643;SDS011;7921;43.586;1.408;2023-11-21T03:18:14;2.20;;;0.80;;
15643;SDS011;7921;43.586;1.408;2023-11-21T03:20:39;2.50;;;1.00;;
15643;SDS011;7921;43.586;1.408;2023-11-21T03:23:04;3.67;;;1.40;;
15643;SDS011;7921;43.586;1.408;2023-11-21T03:25:30;1.53;;;0.97;;
15643;SDS011;7921;43.586;1.408;2023-11-21T03:27:56;3.97;;;0.90;;
15643;SDS011;7921;43.586;1.408;2023-11-21T03:30:21;2.93;;;0.93;;
15643;SDS011;7921;43.586;1.408;2023-11-21T03:32:47;1.93;;;0.90;;
15643;SDS011;7921;43.586;1.408;2023-11-21T03:35:12;4.73;;;1.47;;
15643;SDS011;7921;43.586;1.408;2023-11-21T03:37:38;2.00;;;1.37;;
15643;SDS011;7921;43.586;1.408;2023-11-21T03:40:07;2.43;;;0.97;;
15643;SDS011;7921;43.586;1.408;2023-11-21T03:42:34;3.00;;;1.10;;
15643;SDS011;7921;43.586;1.408;2023-11-21T03:44:59;3.40;;;1.10;;
15643;SDS011;7921;43.586;1.408;2023-11-21T03:47:26;4.93;;;1.00;;
15643;SDS011;7921;43.586;1.408;2023-11-21T03:49:52;3.47;;;1.10;;
15643;SDS011;7921;43.586;1.408;2023-11-21T03:52:20;2.03;;;1.10;;
15643;SDS011;7921;43.586;1.408;2023-11-21T03:54:45;3.50;;;1.07;;
15643;SDS011;7921;43.586;1.408;2023-11-21T03:57:11;2.67;;;1.20;;
15643;SDS011;7921;43.586;1.408;2023-11-21T03:59:39;5.20;;;1.17;;
15643;SDS011;7921;43.586;1.408;2023-11-21T04:02:05;2.00;;;1.17;;
15643;SDS011;7921;43.586;1.408;2023-11-21T04:04:32;3.57;;;1.00;;
15643;SDS011;7921;43.586;1.408;2023-11-21T04:07:01;2.77;;;1.27;;
15643;SDS011;7921;43.586;1.408;2023-11-21T04:09:26;2.10;;;0.80;;
15643;SDS011;7921;43.586;1.408;2023-11-21T04:11:52;1.80;;;1.00;;
15643;SDS011;7921;43.586;1.408;2023-11-21T04:14:18;2.43;;;0.90;;
15643;SDS011;7921;43.586;1.408;2023-11-21T04:16:43;2.20;;;1.00;;
15643;SDS011;7921;43.586;1.408;2023-11-21T04:19:09;2.70;;;1.17;;
15643;SDS011;7921;43.586;1.408;2023-11-21T04:21:35;3.07;;;1.30;;
15643;SDS011;7921;43.586;1.408;2023-11-21T04:24:04;2.60;;;0.93;;
15643;SDS011;7921;43.586;1.408;2023-11-21T04:26:29;2.60;;;1.07;;
15643;SDS011;7921;43.586;1.408;2023-11-21T04:28:55;2.97;;;1.10;;
15643;SDS011;7921;43.586;1.408;2023-11-21T04:31:20;2.57;;;1.10;;
15643;SDS011;7921;43.586;1.408;2023-11-21T04:33:46;2.23;;;0.97;;
15643;SDS011;7921;43.586;1.408;2023-11-21T04:36:11;4.60;;;1.30;;
15643;SDS011;7921;43.586;1.408;2023-11-21T04:38:36;2.30;;;1.00;;
15643;SDS011;7921;43.586;1.408;2023-11-21T04:41:02;2.37;;;0.80;;
15643;SDS011;7921;43.586;1.408;2023-11-21T04:43:27;2.27;;;1.07;;
15643;SDS011;7921;43.586;1.408;2023-11-21T04:45:52;3.33;;;0.90;;
15643;SDS011;7921;43.586;1.408;2023-11-21T04:48:19;3.67;;;1.40;;
15643;SDS011;7921;43.586;1.408;2023-11-21T04:50:45;1.73;;;1.23;;
15643;SDS011;7921;43.586;1.408;2023-11-21T04:53:10;3.97;;;1.10;;
15643;SDS011;7921;43.586;1.408;2023-11-21T04:55:38;2.10;;;0.93;;
15643;SDS011;7921;43.586;1.408;2023-11-21T04:58:04;3.37;;;0.97;;
15643;SDS011;7921;43.586;1.408;2023-11-21T05:00:29;3.40;;;1.23;;
15643;SDS011;7921;43.586;1.408;2023-11-21T05:02:55;3.73;;;1.53;;
15643;SDS011;7921;43.586;1.408;2023-11-21T05:05:20;2.13;;;1.00;;
15643;SDS011;7921;43.586;1.408;2023-11-21T05:07:45;3.00;;;0.80;;
15643;SDS011;7921;43.586;1.408;2023-11-21T05:10:11;2.10;;;1.00;;
15643;SDS011;7921;43.586;1.408;2023-11-21T05:12:37;1.93;;;1.20;;
15643;SDS011;7921;43.586;1.408;2023-11-21T05:15:06;1.63;;;0.90;;
15643;SDS011;7921;43.586;1.408;2023-11-21T05:17:34;2.10;;;1.10;;
15643;SDS011;7921;43.586;1.408;2023-11-21T05:20:00;1.97;;;0.90;;
15643;SDS011;7921;43.586;1.408;2023-11-21T05:22:28;4.93;;;1.03;;
15643;SDS011;7921;43.586;1.408;2023-11-21T05:24:54;4.97;;;1.50;;
15643;SDS011;7921;43.586;1.408;2023-11-21T05:27:19;3.03;;;1.17;;
15643;SDS011;7921;43.586;1.408;2023-11-21T05:29:44;2.80;;;1.47;;
15643;SDS011;7921;43.586;1.408;2023-11-21T05:32:10;1.43;;;0.80;;
15643;SDS011;7921;43.586;1.408;2023-11-21T05:34:35;2.57;;;0.97;;
15643;SDS011;7921;43.586;1.408;2023-11-21T05:37:00;2.97;;;1.07;;
15643;SDS011;7921;43.586;1.408;2023-11-21T05:39:26;2.80;;;0.80;;
15643;SDS011;7921;43.586;1.408;2023-11-21T05:41:52;0.97;;;0.77;;
15643;SDS011;7921;43.586;1.408;2023-11-21T05:44:18;1.90;;;1.07;;
15643;SDS011;7921;43.586;1.408;2023-11-21T05:46:44;2.83;;;1.17;;
15643;SDS011;7921;43.586;1.408;2023-11-21T05:49:09;2.33;;;0.70;;
15643;SDS011;7921;43.586;1.408;2023-11-21T05:51:34;3.50;;;0.80;;
15643;SDS011;7921;43.586;1.408;2023-11-21T05:54:00;2.60;;;0.90;;
15643;SDS011;7921;43.586;1.408;2023-11-21T05:56:25;2.53;;;1.00;;
15643;SDS011;7921;43.586;1.408;2023-11-21T05:58:50;1.83;;;0.97;;
15643;SDS011;7921;43.586;1.408;2023-11-21T06:01:17;1.13;;;0.93;;
15643;SDS011;7921;43.586;1.408;2023-11-21T06:03:42;2.73;;;0.73;;
15643;SDS011;7921;43.586;1.408;2023-11-21T06:06:08;2.43;;;1.43;;
15643;SDS011;7921;43.586;1.408;2023-11-21T06:08:33;0.73;;;0.70;;
15643;SDS011;7921;43.586;1.408;2023-11-21T06:10:59;3.40;;;1.20;;
15643;SDS011;7921;43.586;1.408;2023-11-21T06:13:24;1.73;;;0.90;;
15643;SDS011;7921;43.586;1.408;2023-11-21T06:15:52;1.63;;;0.73;;
15643;SDS011;7921;43.586;1.408;2023-11-21T06:18:18;1.27;;;0.83;;
15643;SDS011;7921;43.586;1.408;2023-11-21T06:20:47;2.90;;;0.90;;
15643;SDS011;7921;43.586;1.408;2023-11-21T06:23:12;3.13;;;0.90;;
15643;SDS011;7921;43.586;1.408;2023-11-21T06:25:39;1.17;;;0.70;;
15643;SDS011;7921;43.586;1.408;2023-11-21T06:28:05;1.50;;;0.70;;
15643;SDS011;7921;43.586;1.408;2023-11-21T06:30:30;2.10;;;0.83;;
15643;SDS011;7921;43.586;1.408;2023-11-21T06:32:57;1.57;;;0.83;;
15643;SDS011;7921;43.586;1.408;2023-11-21T06:35:22;2.83;;;1.00;;
15643;SDS011;7921;43.586;1.408;2023-11-21T06:37:47;2.63;;;0.70;;
15643;SDS011;7921;43.586;1.408;2023-11-21T06:40:13;2.13;;;0.80;;
15643;SDS011;7921;43.586;1.408;2023-11-21T06:42:43;1.57;;;0.70;;
15643;SDS011;7921;43.586;1.408;2023-11-21T06:45:09;1.17;;;0.70;;
15643;SDS011;7921;43.586;1.408;2023-11-21T06:47:35;2.40;;;1.07;;
15643;SDS011;7921;43.586;1.408;2023-11-21T06:50:01;0.83;;;0.80;;
15643;SDS011;7921;43.586;1.408;2023-11-21T06:52:26;0.90;;;0.70;;
15643;SDS011;7921;43.586;1.408;2023-11-21T06:54:52;1.53;;;1.00;;
15643;SDS011;7921;43.586;1.408;2023-11-21T06:57:18;2.45;;;1.00;;
15643;SDS011;7921;43.586;1.408;2023-11-21T06:59:43;0.60;;;0.60;;
15643;SDS011;7921;43.586;1.408;2023-11-21T07:02:09;3.77;;;1.50;;
15643;SDS011;7921;43.586;1.408;2023-11-21T07:04:34;4.53;;;1.00;;
15643;SDS011;7921;43.586;1.408;2023-11-21T07:07:03;3.20;;;1.00;;
15643;SDS011;7921;43.586;1.408;2023-11-21T07:09:28;1.80;;;1.07;;
15643;SDS011;7921;43.586;1.408;2023-11-21T07:11:55;1.03;;;0.93;;
15643;SDS011;7921;43.586;1.408;2023-11-21T07:14:21;1.17;;;0.90;;
15643;SDS011;7921;43.586;1.408;2023-11-21T07:16:47;1.73;;;0.77;;
15643;SDS011;7921;43.586;1.408;2023-11-21T07:19:12;1.97;;;0.63;;
15643;SDS011;7921;43.586;1.408;2023-11-21T07:21:38;2.63;;;0.70;;
15643;SDS011;7921;43.586;1.408;2023-11-21T07:24:04;2.10;;;0.70;;
15643;SDS011;7921;43.586;1.408;2023-11-21T07:26:31;0.83;;;0.80;;
15643;SDS011;7921;43.586;1.408;2023-11-21T07:28:57;2.43;;;1.03;;
15643;SDS011;7921;43.586;1.408;2023-11-21T07:31:22;1.67;;;0.80;;
15643;SDS011;7921;43.586;1.408;2023-11-21T07:33:49;1.73;;;0.97;;
15643;SDS011;7921;43.586;1.408;2023-11-21T07:36:15;2.17;;;0.90;;
15643;SDS011;7921;43.586;1.408;2023-11-21T07:38:41;2.07;;;0.90;;
15643;SDS011;7921;43.586;1.408;2023-11-21T07:41:07;1.50;;;0.80;;
15643;SDS011;7921;43.586;1.408;2023-11-21T07:43:35;1.73;;;1.00;;
15643;SDS011;7921;43.586;1.408;2023-11-21T07:46:01;1.17;;;0.93;;
15643;SDS011;7921;43.586;1.408;2023-11-21T07:48:28;1.87;;;1.10;;
15643;SDS011;7921;43.586;1.408;2023-11-21T07:50:57;1.70;;;0.93;;
15643;SDS011;7921;43.586;1.408;2023-11-21T07:53:25;1.83;;;1.17;;
15643;SDS011;7921;43.586;1.408;2023-11-21T07:55:53;2.23;;;1.00;;
15643;SDS011;7921;43.586;1.408;2023-11-21T07:58:19;2.97;;;1.00;;
15643;SDS011;7921;43.586;1.408;2023-11-21T08:00:45;1.97;;;0.90;;
15643;SDS011;7921;43.586;1.408;2023-11-21T08:03:10;2.77;;;1.17;;
15643;SDS011;7921;43.586;1.408;2023-11-21T08:05:36;2.37;;;1.10;;
15643;SDS011;7921;43.586;1.408;2023-11-21T08:08:01;1.67;;;1.10;;
15643;SDS011;7921;43.586;1.408;2023-11-21T08:10:27;1.67;;;1.03;;
15643;SDS011;7921;43.586;1.408;2023-11-21T08:12:52;1.50;;;0.97;;
15643;SDS011;7921;43.586;1.408;2023-11-21T08:15:18;2.30;;;0.80;;
15643;SDS011;7921;43.586;1.408;2023-11-21T08:17:44;1.50;;;0.80;;
15643;SDS011;7921;43.586;1.408;2023-11-21T08:20:10;1.40;;;0.80;;
15643;SDS011;7921;43.586;1.408;2023-11-21T08:22:36;1.93;;;0.80;;
15643;SDS011;7921;43.586;1.408;2023-11-21T08:25:01;2.77;;;1.10;;
15643;SDS011;7921;43.586;1.408;2023-11-21T08:27:29;4.50;;;1.10;;
15643;SDS011;7921;43.586;1.408;2023-11-21T08:29:54;1.53;;;0.70;;
15643;SDS011;7921;43.586;1.408;2023-11-21T08:32:21;1.77;;;0.90;;
15643;SDS011;7921;43.586;1.408;2023-11-21T08:34:47;1.20;;;0.83;;
15643;SDS011;7921;43.586;1.408;2023-11-21T08:37:15;3.30;;;1.10;;
15643;SDS011;7921;43.586;1.408;2023-11-21T08:39:41;3.80;;;1.03;;
15643;SDS011;7921;43.586;1.408;2023-11-21T08:42:07;1.43;;;0.90;;
15643;SDS011;7921;43.586;1.408;2023-11-21T08:44:33;1.07;;;0.73;;
15643;SDS011;7921;43.586;1.408;2023-11-21T08:46:58;1.73;;;1.33;;
15643;SDS011;7921;43.586;1.408;2023-11-21T08:49:24;1.93;;;1.13;;
15643;SDS011;7921;43.586;1.408;2023-11-21T08:51:51;1.43;;;1.10;;
15643;SDS011;7921;43.586;1.408;2023-11-21T08:54:16;2.17;;;1.03;;
15643;SDS011;7921;43.586;1.408;2023-11-21T08:56:43;2.00;;;0.63;;
15643;SDS011;7921;43.586;1.408;2023-11-21T08:59:08;2.97;;;1.30;;
15643;SDS011;7921;43.586;1.408;2023-11-21T09:01:34;3.60;;;1.23;;
15643;SDS011;7921;43.586;1.408;2023-11-21T09:03:59;1.10;;;0.93;;
15643;SDS011;7921;43.586;1.408;2023-11-21T09:06:24;2.17;;;0.80;;
15643;SDS011;7921;43.586;1.408;2023-11-21T09:08:50;1.10;;;0.90;;
15643;SDS011;7921;43.586;1.408;2023-11-21T09:11:15;2.30;;;0.83;;
15643;SDS011;7921;43.586;1.408;2023-11-21T09:13:41;2.23;;;0.67;;
15643;SDS011;7921;43.586;1.408;2023-11-21T09:16:06;1.47;;;0.80;;
15643;SDS011;7921;43.586;1.408;2023-11-21T09:18:32;1.70;;;0.80;;
15643;SDS011;7921;43.586;1.408;2023-11-21T09:20:57;1.00;;;0.77;;
15643;SDS011;7921;43.586;1.408;2023-11-21T09:23:23;2.00;;;1.10;;
15643;SDS011;7921;43.586;1.408;2023-11-21T09:25:49;2.53;;;1.03;;
15643;SDS011;7921;43.586;1.408;2023-11-21T09:28:15;2.53;;;1.50;;
15643;SDS011;7921;43.586;1.408;2023-11-21T09:30:42;1.20;;;1.00;;
15643;SDS011;7921;43.586;1.408;2023-11-21T09:33:08;0.80;;;0.77;;
15643;SDS011;7921;43.586;1.408;2023-11-21T09:35:36;1.07;;;0.87;;
15643;SDS011;7921;43.586;1.408;2023-11-21T09:38:03;1.70;;;0.80;;
15643;SDS011;7921;43.586;1.408;2023-11-21T09:40:30;1.57;;;0.70;;
15643;SDS011;7921;43.586;1.408;2023-11-21T09:42:56;1.37;;;0.90;;
15643;SDS011;7921;43.586;1.408;2023-11-21T09:45:28;1.60;;;0.87;;
15643;SDS011;7921;43.586;1.408;2023-11-21T09:47:56;0.97;;;0.97;;
15643;SDS011;7921;43.586;1.408;2023-11-21T09:50:22;0.90;;;0.80;;
15643;SDS011;7921;43.586;1.408;2023-11-21T09:52:58;0.87;;;0.60;;
15643;SDS011;7921;43.586;1.408;2023-11-21T20:42:16;1.90;;;1.03;;
15643;SDS011;7921;43.586;1.408;2023-11-21T20:44:43;1.07;;;1.00;;
15643;SDS011;7921;43.586;1.408;2023-11-21T20:47:09;3.13;;;0.90;;
15643;SDS011;7921;43.586;1.408;2023-11-21T20:49:35;1.27;;;1.00;;
15643;SDS011;7921;43.586;1.408;2023-11-21T20:52:00;3.07;;;1.13;;
15643;SDS011;7921;43.586;1.408;2023-11-21T20:54:26;1.17;;;1.07;;
15643;SDS011;7921;43.586;1.408;2023-11-21T20:56:51;1.13;;;0.90;;
15643;SDS011;7921;43.586;1.408;2023-11-21T20:59:17;1.20;;;1.03;;
15643;SDS011;7921;43.586;1.408;2023-11-21T21:01:42;1.90;;;1.77;;
15643;SDS011;7921;43.586;1.408;2023-11-21T21:04:09;1.93;;;1.10;;
15643;SDS011;7921;43.586;1.408;2023-11-21T21:06:36;1.70;;;1.10;;
15643;SDS011;7921;43.586;1.408;2023-11-21T21:09:02;1.20;;;1.10;;
15643;SDS011;7921;43.586;1.408;2023-11-21T21:11:28;1.20;;;1.10;;
15643;SDS011;7921;43.586;1.408;2023-11-21T21:13:56;1.30;;;1.20;;
15643;SDS011;7921;43.586;1.408;2023-11-21T21:16:22;1.70;;;1.30;;
